createdAt,value
2019-03-29T00:00:19.784Z,1014.78
2019-03-29T00:01:19.789Z,1014.77
2019-03-29T00:02:19.795Z,1014.80
2019-03-29T00:03:19.800Z,1014.75
2019-03-29T00:04:19.808Z,1014.78
2019-03-29T00:05:19.809Z,1014.77
2019-03-29T00:06:19.816Z,1014.77
2019-03-29T00:07:19.820Z,1014.80
2019-03-29T00:08:19.825Z,1014.79
2019-03-29T00:09:19.833Z,1014.79
2019-03-29T00:10:20.296Z,1014.69
2019-03-29T00:11:19.844Z,1014.65
2019-03-29T00:12:19.850Z,1014.61
2019-03-29T00:13:19.852Z,1014.61
2019-03-29T00:14:23.267Z,1014.55
2019-03-29T00:15:19.865Z,1014.55
2019-03-29T00:16:19.917Z,1014.53
2019-03-29T00:17:19.877Z,1014.49
2019-03-29T00:18:19.882Z,1014.46
2019-03-29T00:19:19.887Z,1014.40
2019-03-29T00:20:20.191Z,1014.38
2019-03-29T00:21:19.897Z,1014.33
2019-03-29T00:22:19.902Z,1014.34
2019-03-29T00:23:19.906Z,1014.30
2019-03-29T00:24:19.911Z,1014.26
2019-03-29T00:25:19.916Z,1014.24
2019-03-29T00:26:19.925Z,1014.14
2019-03-29T00:27:19.928Z,1014.11
2019-03-29T00:28:19.933Z,1014.09
2019-03-29T00:29:19.940Z,1014.07
2019-03-29T00:30:19.969Z,1014.06
2019-03-29T00:31:19.949Z,1014.08
2019-03-29T00:32:19.955Z,1014.07
2019-03-29T00:33:19.961Z,1014.02
2019-03-29T00:34:19.966Z,1014.00
2019-03-29T00:35:19.972Z,1014.01
2019-03-29T00:36:19.977Z,1013.99
2019-03-29T00:37:19.980Z,1013.98
2019-03-29T00:38:19.995Z,1013.96
2019-03-29T00:39:19.993Z,1013.97
2019-03-29T00:40:19.997Z,1013.97
2019-03-29T00:41:20.002Z,1013.99
2019-03-29T00:42:20.009Z,1013.92
2019-03-29T00:43:20.015Z,1013.91
2019-03-29T00:44:20.019Z,1013.89
2019-03-29T00:45:20.025Z,1013.80
2019-03-29T00:46:20.029Z,1013.80
2019-03-29T00:47:20.035Z,1013.77
2019-03-29T00:48:20.043Z,1013.72
2019-03-29T00:49:20.044Z,1013.66
2019-03-29T00:50:20.052Z,1013.59
2019-03-29T00:51:20.056Z,1013.62
2019-03-29T00:52:20.062Z,1013.58
2019-03-29T00:53:20.067Z,1013.59
2019-03-29T00:54:20.073Z,1013.52
2019-03-29T00:55:20.819Z,1013.46
2019-03-29T00:56:20.084Z,1013.38
2019-03-29T00:57:20.090Z,1013.40
2019-03-29T00:58:20.097Z,1013.36
2019-03-29T00:59:20.099Z,1013.34
2019-03-29T01:00:20.104Z,1013.32
2019-03-29T01:01:20.109Z,1013.36
2019-03-29T01:02:20.116Z,1013.45
2019-03-29T01:03:20.123Z,1013.50
2019-03-29T01:04:20.124Z,1013.54
2019-03-29T01:05:20.238Z,1013.51
2019-03-29T01:06:20.139Z,1013.51
2019-03-29T01:07:20.146Z,1013.52
2019-03-29T01:08:20.147Z,1013.45
2019-03-29T01:09:20.314Z,1013.44
2019-03-29T01:10:20.160Z,1013.41
2019-03-29T01:11:20.176Z,1013.43
2019-03-29T01:12:20.169Z,1013.40
2019-03-29T01:13:20.179Z,1013.39
2019-03-29T01:14:20.181Z,1013.34
2019-03-29T01:15:20.185Z,1013.26
2019-03-29T01:16:20.356Z,1013.09
2019-03-29T01:17:20.309Z,1013.06
2019-03-29T01:18:20.201Z,1012.98
2019-03-29T01:19:20.206Z,1012.97
2019-03-29T01:20:20.211Z,1012.97
2019-03-29T01:21:20.219Z,1012.95
2019-03-29T01:22:20.223Z,1012.98
2019-03-29T01:23:20.229Z,1013.01
2019-03-29T01:24:20.233Z,1012.97
2019-03-29T01:25:20.237Z,1012.96
2019-03-29T01:26:20.244Z,1012.98
2019-03-29T01:27:20.248Z,1012.96
2019-03-29T01:28:20.256Z,1012.91
2019-03-29T01:29:20.259Z,1012.81
2019-03-29T01:30:20.265Z,1012.77
2019-03-29T01:31:20.272Z,1012.72
2019-03-29T01:32:20.275Z,1012.67
2019-03-29T01:33:20.281Z,1012.67
2019-03-29T01:34:20.287Z,1012.65
2019-03-29T01:35:20.295Z,1012.63
2019-03-29T01:36:20.297Z,1012.61
2019-03-29T01:37:20.325Z,1012.63
2019-03-29T01:38:22.327Z,1012.60
2019-03-29T01:39:20.317Z,1012.61
2019-03-29T01:40:20.332Z,1012.69
2019-03-29T01:41:20.324Z,1012.66
2019-03-29T01:42:20.330Z,1012.62
2019-03-29T01:43:20.335Z,1012.67
2019-03-29T01:44:20.341Z,1012.63
2019-03-29T01:45:20.344Z,1012.58
2019-03-29T01:46:20.350Z,1012.55
2019-03-29T01:47:20.354Z,1012.49
2019-03-29T01:48:20.364Z,1012.41
2019-03-29T01:49:20.366Z,1012.35
2019-03-29T01:50:20.372Z,1012.34
2019-03-29T01:51:20.377Z,1012.30
2019-03-29T01:52:20.382Z,1012.30
2019-03-29T01:53:20.387Z,1012.30
2019-03-29T01:54:20.394Z,1012.34
2019-03-29T01:55:20.400Z,1012.27
2019-03-29T01:56:20.404Z,1012.25
2019-03-29T01:57:20.410Z,1012.22
2019-03-29T01:58:20.414Z,1012.19
2019-03-29T01:59:20.421Z,1012.21
2019-03-29T02:00:20.424Z,1012.19
2019-03-29T02:01:20.433Z,1012.22
2019-03-29T02:02:21.036Z,1012.23
2019-03-29T02:03:20.443Z,1012.22
2019-03-29T02:04:20.446Z,1012.24
2019-03-29T02:05:20.452Z,1012.24
2019-03-29T02:06:20.457Z,1012.28
2019-03-29T02:07:20.463Z,1012.26
2019-03-29T02:08:20.466Z,1012.28
2019-03-29T02:09:20.472Z,1012.25
2019-03-29T02:10:20.484Z,1012.24
2019-03-29T02:11:20.484Z,1012.19
2019-03-29T02:12:20.487Z,1012.15
2019-03-29T02:13:20.494Z,1012.16
2019-03-29T02:14:20.499Z,1012.12
2019-03-29T02:15:20.506Z,1012.15
2019-03-29T02:16:20.510Z,1012.13
2019-03-29T02:17:21.241Z,1012.12
2019-03-29T02:18:20.521Z,1012.10
2019-03-29T02:19:20.525Z,1012.17
2019-03-29T02:20:20.534Z,1012.14
2019-03-29T02:21:20.538Z,1012.18
2019-03-29T02:22:20.544Z,1012.19
2019-03-29T02:23:20.546Z,1012.18
2019-03-29T02:24:20.554Z,1012.17
2019-03-29T02:25:20.558Z,1012.17
2019-03-29T02:26:20.777Z,1012.18
2019-03-29T02:27:20.569Z,1012.18
2019-03-29T02:28:20.574Z,1012.18
2019-03-29T02:29:20.580Z,1012.15
2019-03-29T02:30:20.585Z,1012.15
2019-03-29T02:31:25.207Z,1012.13
2019-03-29T02:32:20.598Z,1012.15
2019-03-29T02:33:21.142Z,1012.12
2019-03-29T02:34:20.610Z,1012.10
2019-03-29T02:35:20.612Z,1012.05
2019-03-29T02:36:20.617Z,1012.10
2019-03-29T02:37:20.622Z,1012.13
2019-03-29T02:38:20.637Z,1012.15
2019-03-29T02:39:20.653Z,1012.17
2019-03-29T02:40:22.701Z,1012.13
2019-03-29T02:41:20.646Z,1012.16
2019-03-29T02:42:20.655Z,1012.12
2019-03-29T02:43:20.653Z,1012.07
2019-03-29T02:44:20.659Z,1012.10
2019-03-29T02:45:20.681Z,1012.17
2019-03-29T02:46:20.671Z,1012.11
2019-03-29T02:47:21.692Z,1012.15
2019-03-29T02:48:20.680Z,1012.15
2019-03-29T02:49:20.690Z,1012.18
2019-03-29T02:50:20.691Z,1012.18
2019-03-29T02:51:20.700Z,1012.16
2019-03-29T02:52:20.722Z,1012.08
2019-03-29T02:53:20.713Z,1012.04
2019-03-29T02:54:20.710Z,1012.08
2019-03-29T02:55:20.719Z,1012.06
2019-03-29T02:56:20.723Z,1012.12
2019-03-29T02:57:20.729Z,1012.16
2019-03-29T02:58:20.733Z,1012.18
2019-03-29T02:59:20.981Z,1012.16
2019-03-29T03:00:20.747Z,1012.20
2019-03-29T03:01:20.750Z,1012.20
2019-03-29T03:02:20.766Z,1012.17
2019-03-29T03:03:20.760Z,1012.22
2019-03-29T03:04:20.768Z,1012.20
2019-03-29T03:05:20.771Z,1012.19
2019-03-29T03:06:20.778Z,1012.20
2019-03-29T03:07:20.781Z,1012.23
2019-03-29T03:08:20.787Z,1012.18
2019-03-29T03:09:20.794Z,1012.14
2019-03-29T03:10:20.798Z,1012.08
2019-03-29T03:11:20.804Z,1012.09
2019-03-29T03:12:20.809Z,1012.08
2019-03-29T03:13:20.812Z,1012.06
2019-03-29T03:14:20.820Z,1012.03
2019-03-29T03:15:20.831Z,1012.08
2019-03-29T03:16:20.828Z,1011.97
2019-03-29T03:17:20.833Z,1011.97
2019-03-29T03:18:20.841Z,1011.91
2019-03-29T03:19:20.850Z,1011.86
2019-03-29T03:20:20.857Z,1011.89
2019-03-29T03:21:20.868Z,1011.88
2019-03-29T03:22:20.860Z,1011.85
2019-03-29T03:23:20.867Z,1011.82
2019-03-29T03:24:20.948Z,1011.83
2019-03-29T03:25:20.877Z,1011.82
2019-03-29T03:26:20.884Z,1011.79
2019-03-29T03:27:20.889Z,1011.80
2019-03-29T03:28:20.891Z,1011.81
2019-03-29T03:29:20.897Z,1011.74
2019-03-29T03:30:20.914Z,1011.69
2019-03-29T03:31:20.910Z,1011.68
2019-03-29T03:32:20.947Z,1011.68
2019-03-29T03:33:20.919Z,1011.68
2019-03-29T03:34:20.973Z,1011.66
2019-03-29T03:35:20.942Z,1011.68
2019-03-29T03:36:20.934Z,1011.66
2019-03-29T03:37:20.956Z,1011.64
2019-03-29T03:38:20.951Z,1011.62
2019-03-29T03:39:31.307Z,1011.60
2019-03-29T03:40:20.969Z,1011.58
2019-03-29T03:41:20.960Z,1011.58
2019-03-29T03:42:20.969Z,1011.51
2019-03-29T03:43:20.972Z,1011.50
2019-03-29T03:44:20.977Z,1011.44
2019-03-29T03:45:20.983Z,1011.41
2019-03-29T03:46:21.073Z,1011.45
2019-03-29T03:47:20.994Z,1011.41
2019-03-29T03:48:20.998Z,1011.39
2019-03-29T03:49:21.004Z,1011.34
2019-03-29T03:50:21.009Z,1011.36
2019-03-29T03:51:21.031Z,1011.29
2019-03-29T03:52:21.020Z,1011.33
2019-03-29T03:53:21.024Z,1011.33
2019-03-29T03:54:21.029Z,1011.31
2019-03-29T03:55:21.036Z,1011.27
2019-03-29T03:56:21.047Z,1011.26
2019-03-29T03:57:21.045Z,1011.23
2019-03-29T03:58:21.069Z,1011.27
2019-03-29T03:59:21.065Z,1011.24
2019-03-29T04:00:21.061Z,1011.18
2019-03-29T04:01:21.067Z,1011.21
2019-03-29T04:02:21.071Z,1011.17
2019-03-29T04:03:21.222Z,1011.23
2019-03-29T04:04:21.093Z,1011.21
2019-03-29T04:05:21.088Z,1011.20
2019-03-29T04:06:21.095Z,1011.18
2019-03-29T04:07:21.108Z,1011.15
2019-03-29T04:08:21.111Z,1011.11
2019-03-29T04:09:21.109Z,1011.10
2019-03-29T04:10:21.115Z,1011.09
2019-03-29T04:11:21.120Z,1011.09
2019-03-29T04:12:21.125Z,1011.10
2019-03-29T04:13:21.130Z,1011.10
2019-03-29T04:14:21.153Z,1011.11
2019-03-29T04:15:21.141Z,1011.12
2019-03-29T04:16:21.146Z,1011.15
2019-03-29T04:17:21.149Z,1011.17
2019-03-29T04:18:21.184Z,1011.16
2019-03-29T04:19:21.162Z,1011.17
2019-03-29T04:20:21.167Z,1011.13
2019-03-29T04:21:21.187Z,1011.12
2019-03-29T04:22:21.177Z,1011.12
2019-03-29T04:23:21.183Z,1011.07
2019-03-29T04:24:21.185Z,1011.09
2019-03-29T04:25:21.192Z,1011.15
2019-03-29T04:26:21.206Z,1011.08
2019-03-29T04:27:21.205Z,1011.08
2019-03-29T04:28:21.208Z,1011.06
2019-03-29T04:29:21.213Z,1011.08
2019-03-29T04:30:21.219Z,1011.09
2019-03-29T04:31:21.225Z,1011.15
2019-03-29T04:32:21.540Z,1011.14
2019-03-29T04:33:21.235Z,1011.16
2019-03-29T04:34:21.239Z,1011.17
2019-03-29T04:35:21.246Z,1011.13
2019-03-29T04:36:21.252Z,1011.14
2019-03-29T04:37:21.255Z,1011.16
2019-03-29T04:38:21.261Z,1011.12
2019-03-29T04:39:21.266Z,1011.10
2019-03-29T04:40:21.273Z,1011.06
2019-03-29T04:41:21.277Z,1011.05
2019-03-29T04:42:21.284Z,1011.01
2019-03-29T04:43:21.289Z,1011.03
2019-03-29T04:44:21.290Z,1011.02
2019-03-29T04:45:21.299Z,1010.93
2019-03-29T04:46:21.319Z,1010.89
2019-03-29T04:47:21.309Z,1010.88
2019-03-29T04:48:21.320Z,1010.86
2019-03-29T04:49:21.320Z,1010.88
2019-03-29T04:50:21.324Z,1010.91
2019-03-29T04:51:21.330Z,1010.85
2019-03-29T04:52:21.338Z,1010.85
2019-03-29T04:53:21.340Z,1010.85
2019-03-29T04:54:21.347Z,1010.88
2019-03-29T04:55:21.352Z,1010.79
2019-03-29T04:56:21.368Z,1010.80
2019-03-29T04:57:21.365Z,1010.76
2019-03-29T04:58:21.366Z,1010.72
2019-03-29T04:59:21.396Z,1010.71
2019-03-29T05:00:21.377Z,1010.72
2019-03-29T05:01:21.382Z,1010.65
2019-03-29T05:02:21.387Z,1010.58
2019-03-29T05:03:21.397Z,1010.58
2019-03-29T05:04:21.397Z,1010.56
2019-03-29T05:05:21.404Z,1010.57
2019-03-29T05:06:21.409Z,1010.55
2019-03-29T05:07:21.426Z,1010.52
2019-03-29T05:08:21.423Z,1010.53
2019-03-29T05:09:21.426Z,1010.55
2019-03-29T05:10:22.059Z,1010.53
2019-03-29T05:11:21.505Z,1010.52
2019-03-29T05:12:21.439Z,1010.53
2019-03-29T05:13:21.445Z,1010.52
2019-03-29T05:14:21.449Z,1010.57
2019-03-29T05:15:21.456Z,1010.56
2019-03-29T05:16:21.463Z,1010.59
2019-03-29T05:17:21.466Z,1010.58
2019-03-29T05:18:21.523Z,1010.62
2019-03-29T05:19:21.479Z,1010.61
2019-03-29T05:20:21.535Z,1010.63
2019-03-29T05:21:21.486Z,1010.58
2019-03-29T05:22:21.491Z,1010.53
2019-03-29T05:23:21.501Z,1010.50
2019-03-29T05:24:21.501Z,1010.48
2019-03-29T05:25:21.508Z,1010.43
2019-03-29T05:26:21.513Z,1010.51
2019-03-29T05:27:21.519Z,1010.49
2019-03-29T05:28:21.523Z,1010.54
2019-03-29T05:29:21.529Z,1010.48
2019-03-29T05:30:21.541Z,1010.48
2019-03-29T05:31:21.540Z,1010.47
2019-03-29T05:32:21.545Z,1010.48
2019-03-29T05:33:21.550Z,1010.52
2019-03-29T05:34:21.556Z,1010.48
2019-03-29T05:35:21.562Z,1010.47
2019-03-29T05:36:21.566Z,1010.46
2019-03-29T05:37:21.572Z,1010.44
2019-03-29T05:38:21.576Z,1010.41
2019-03-29T05:39:21.582Z,1010.37
2019-03-29T05:40:34.303Z,1010.42
2019-03-29T05:41:21.593Z,1010.41
2019-03-29T05:42:21.598Z,1010.38
2019-03-29T05:43:21.604Z,1010.31
2019-03-29T05:44:21.609Z,1010.31
2019-03-29T05:45:21.613Z,1010.23
2019-03-29T05:46:21.883Z,1010.22
2019-03-29T05:47:21.629Z,1010.17
2019-03-29T05:48:21.631Z,1010.18
2019-03-29T05:49:21.636Z,1010.20
2019-03-29T05:50:21.641Z,1010.18
2019-03-29T05:51:21.646Z,1010.18
2019-03-29T05:52:21.651Z,1010.21
2019-03-29T05:53:21.658Z,1010.21
2019-03-29T05:54:21.661Z,1010.23
2019-03-29T05:55:32.109Z,1010.22
2019-03-29T05:56:21.675Z,1010.20
2019-03-29T05:57:21.678Z,1010.20
2019-03-29T05:58:21.683Z,1010.16
2019-03-29T05:59:21.691Z,1010.11
2019-03-29T06:00:21.694Z,1010.08
2019-03-29T06:01:21.699Z,1010.04
2019-03-29T06:02:21.705Z,1010.00
2019-03-29T06:03:21.709Z,1009.93
2019-03-29T06:04:21.715Z,1009.91
2019-03-29T06:05:21.720Z,1009.82
2019-03-29T06:06:21.729Z,1009.83
2019-03-29T06:07:21.761Z,1009.85
2019-03-29T06:08:21.737Z,1009.82
2019-03-29T06:09:21.742Z,1009.84
2019-03-29T06:10:21.790Z,1009.82
2019-03-29T06:11:21.904Z,1009.84
2019-03-29T06:12:21.760Z,1009.89
2019-03-29T06:13:21.764Z,1009.87
2019-03-29T06:14:21.770Z,1009.88
2019-03-29T06:15:21.780Z,1009.88
2019-03-29T06:16:21.780Z,1009.94
2019-03-29T06:17:21.788Z,1009.87
2019-03-29T06:18:21.791Z,1009.86
2019-03-29T06:19:21.796Z,1009.86
2019-03-29T06:20:21.801Z,1009.84
2019-03-29T06:21:21.805Z,1009.84
2019-03-29T06:22:21.814Z,1009.74
2019-03-29T06:23:21.819Z,1009.78
2019-03-29T06:24:21.823Z,1009.75
2019-03-29T06:25:21.840Z,1009.76
2019-03-29T06:26:21.835Z,1009.75
2019-03-29T06:27:21.840Z,1009.60
2019-03-29T06:28:21.861Z,1009.75
2019-03-29T06:29:21.850Z,1009.75
2019-03-29T06:30:21.856Z,1009.75
2019-03-29T06:31:21.860Z,1009.78
2019-03-29T06:32:21.866Z,1009.77
2019-03-29T06:33:21.871Z,1009.87
2019-03-29T06:34:21.943Z,1009.90
2019-03-29T06:35:21.882Z,1009.92
2019-03-29T06:36:21.886Z,1009.86
2019-03-29T06:37:21.894Z,1009.86
2019-03-29T06:38:21.899Z,1009.84
2019-03-29T06:39:21.904Z,1009.80
2019-03-29T06:40:21.911Z,1009.80
2019-03-29T06:41:21.915Z,1009.83
2019-03-29T06:42:21.928Z,1009.84
2019-03-29T06:43:21.930Z,1009.82
2019-03-29T06:44:21.930Z,1009.80
2019-03-29T06:45:21.936Z,1009.77
2019-03-29T06:46:21.940Z,1009.76
2019-03-29T06:47:21.946Z,1009.77
2019-03-29T06:48:21.952Z,1009.75
2019-03-29T06:49:21.963Z,1009.71
2019-03-29T06:50:21.961Z,1009.67
2019-03-29T06:51:21.969Z,1009.64
2019-03-29T06:52:21.973Z,1009.60
2019-03-29T06:53:21.979Z,1009.52
2019-03-29T06:54:21.984Z,1009.56
2019-03-29T06:55:21.989Z,1009.59
2019-03-29T06:56:21.993Z,1009.50
2019-03-29T06:57:22.001Z,1009.49
2019-03-29T06:58:22.005Z,1009.49
2019-03-29T06:59:22.016Z,1009.49
2019-03-29T07:00:22.017Z,1009.54
2019-03-29T07:01:22.021Z,1009.52
2019-03-29T07:02:22.028Z,1009.49
2019-03-29T07:03:22.032Z,1009.50
2019-03-29T07:04:22.037Z,1009.46
2019-03-29T07:05:22.046Z,1009.48
2019-03-29T07:06:22.052Z,1009.47
2019-03-29T07:07:22.055Z,1009.43
2019-03-29T07:08:22.060Z,1009.42
2019-03-29T07:09:22.064Z,1009.46
2019-03-29T07:10:22.070Z,1009.49
2019-03-29T07:11:22.076Z,1009.49
2019-03-29T07:12:22.080Z,1009.41
2019-03-29T07:13:22.090Z,1009.41
2019-03-29T07:14:22.091Z,1009.41
2019-03-29T07:15:22.096Z,1009.43
2019-03-29T07:16:22.101Z,1009.40
2019-03-29T07:17:22.109Z,1009.44
2019-03-29T07:18:22.113Z,1009.47
2019-03-29T07:19:22.122Z,1009.45
2019-03-29T07:20:22.122Z,1009.46
2019-03-29T07:21:22.299Z,1009.50
2019-03-29T07:22:22.137Z,1009.52
2019-03-29T07:23:22.141Z,1009.57
2019-03-29T07:24:22.145Z,1009.51
2019-03-29T07:25:22.207Z,1009.56
2019-03-29T07:26:22.156Z,1009.52
2019-03-29T07:27:22.162Z,1009.49
2019-03-29T07:28:22.166Z,1009.51
2019-03-29T07:29:22.172Z,1009.49
2019-03-29T07:30:22.178Z,1009.46
2019-03-29T07:31:22.182Z,1009.33
2019-03-29T07:32:22.188Z,1009.32
2019-03-29T07:33:22.194Z,1009.41
2019-03-29T07:34:22.199Z,1009.44
2019-03-29T07:35:22.206Z,1009.48
2019-03-29T07:36:22.209Z,1009.51
2019-03-29T07:37:22.217Z,1009.58
2019-03-29T07:38:22.224Z,1009.54
2019-03-29T07:39:22.227Z,1009.56
2019-03-29T07:40:22.230Z,1009.51
2019-03-29T07:41:31.601Z,1009.43
2019-03-29T07:42:22.245Z,1009.38
2019-03-29T07:43:24.051Z,1009.33
2019-03-29T07:44:22.253Z,1009.28
2019-03-29T07:45:22.258Z,1009.23
2019-03-29T07:46:22.263Z,1009.17
2019-03-29T07:47:22.271Z,1009.19
2019-03-29T07:48:22.275Z,1009.12
2019-03-29T07:49:22.305Z,1009.11
2019-03-29T07:50:22.286Z,1009.12
2019-03-29T07:51:22.292Z,1009.14
2019-03-29T07:52:22.295Z,1009.11
2019-03-29T07:53:22.303Z,1009.13
2019-03-29T07:54:22.314Z,1009.10
2019-03-29T07:55:22.314Z,1009.04
2019-03-29T07:56:22.319Z,1009.07
2019-03-29T07:57:22.325Z,1009.06
2019-03-29T07:58:22.329Z,1009.02
2019-03-29T07:59:22.523Z,1008.96
2019-03-29T08:00:22.345Z,1008.98
2019-03-29T08:01:22.347Z,1008.95
2019-03-29T08:02:22.352Z,1008.96
2019-03-29T08:03:23.503Z,1008.98
2019-03-29T08:04:23.868Z,1008.95
2019-03-29T08:05:22.414Z,1008.94
2019-03-29T08:06:22.477Z,1009.00
2019-03-29T08:07:27.507Z,1008.96
2019-03-29T08:08:24.702Z,1009.02
2019-03-29T08:09:22.952Z,1009.07
2019-03-29T08:10:27.321Z,1009.03
2019-03-29T08:11:26.394Z,1009.04
2019-03-29T08:12:22.528Z,1009.04
2019-03-29T08:13:22.412Z,1009.03
2019-03-29T08:14:22.422Z,1009.04
2019-03-29T08:15:22.426Z,1009.08
2019-03-29T08:16:22.431Z,1009.09
2019-03-29T08:17:22.436Z,1009.07
2019-03-29T08:18:22.456Z,1009.06
2019-03-29T08:19:22.450Z,1009.08
2019-03-29T08:20:39.289Z,1008.92
2019-03-29T08:21:22.457Z,1008.89
2019-03-29T08:22:22.466Z,1008.87
2019-03-29T08:23:22.471Z,1008.90
2019-03-29T08:24:22.475Z,1008.87
2019-03-29T08:25:22.482Z,1008.87
2019-03-29T08:26:22.486Z,1008.90
2019-03-29T08:27:22.497Z,1008.92
2019-03-29T08:28:22.497Z,1008.90
2019-03-29T08:29:22.504Z,1008.87
2019-03-29T08:30:22.509Z,1008.83
2019-03-29T08:31:22.516Z,1008.77
2019-03-29T08:32:22.523Z,1008.79
2019-03-29T08:33:22.527Z,1008.80
2019-03-29T08:34:22.533Z,1008.77
2019-03-29T08:35:22.537Z,1008.89
2019-03-29T08:36:22.543Z,1008.86
2019-03-29T08:37:22.551Z,1008.82
2019-03-29T08:38:22.555Z,1008.77
2019-03-29T08:39:28.199Z,1008.76
2019-03-29T08:40:22.570Z,1008.73
2019-03-29T08:41:22.570Z,1008.68
2019-03-29T08:42:22.584Z,1008.67
2019-03-29T08:43:22.581Z,1008.69
2019-03-29T08:44:22.589Z,1008.67
2019-03-29T08:45:22.592Z,1008.67
2019-03-29T08:46:22.601Z,1008.61
2019-03-29T08:47:22.605Z,1008.50
2019-03-29T08:48:22.609Z,1008.51
2019-03-29T08:49:22.617Z,1008.45
2019-03-29T08:50:22.622Z,1008.42
2019-03-29T08:51:22.629Z,1008.41
2019-03-29T08:52:22.633Z,1008.39
2019-03-29T08:53:22.639Z,1008.35
2019-03-29T08:54:22.647Z,1008.39
2019-03-29T08:55:22.919Z,1008.33
2019-03-29T08:56:22.657Z,1008.30
2019-03-29T08:57:22.662Z,1008.28
2019-03-29T08:58:22.672Z,1008.18
2019-03-29T08:59:22.673Z,1008.23
2019-03-29T09:00:22.678Z,1008.32
2019-03-29T09:01:22.787Z,1008.34
2019-03-29T09:02:25.115Z,1008.34
2019-03-29T09:03:22.695Z,1008.38
2019-03-29T09:04:22.701Z,1008.39
2019-03-29T09:05:22.707Z,1008.43
2019-03-29T09:06:22.719Z,1008.52
2019-03-29T09:07:22.718Z,1008.47
2019-03-29T09:08:22.724Z,1008.55
2019-03-29T09:09:22.730Z,1008.67
2019-03-29T09:10:22.737Z,1008.67
2019-03-29T09:11:22.742Z,1008.61
2019-03-29T09:12:22.751Z,1008.58
2019-03-29T09:13:22.754Z,1008.56
2019-03-29T09:14:22.759Z,1008.53
2019-03-29T09:15:22.765Z,1008.50
2019-03-29T09:16:22.771Z,1008.51
2019-03-29T09:17:22.774Z,1008.50
2019-03-29T09:18:25.781Z,1008.47
2019-03-29T09:19:22.798Z,1008.44
2019-03-29T09:20:22.791Z,1008.42
2019-03-29T09:21:22.797Z,1008.43
2019-03-29T09:22:22.804Z,1008.41
2019-03-29T09:23:22.811Z,1008.36
2019-03-29T09:24:22.848Z,1008.41
2019-03-29T09:25:22.827Z,1008.37
2019-03-29T09:26:22.829Z,1008.38
2019-03-29T09:27:22.837Z,1008.38
2019-03-29T09:28:22.839Z,1008.37
2019-03-29T09:29:22.844Z,1008.30
2019-03-29T09:30:22.851Z,1008.20
2019-03-29T09:31:22.861Z,1008.17
2019-03-29T09:32:22.865Z,1008.13
2019-03-29T09:33:22.873Z,1008.16
2019-03-29T09:34:22.874Z,1008.14
2019-03-29T09:35:22.880Z,1008.21
2019-03-29T09:36:22.885Z,1008.16
2019-03-29T09:37:22.894Z,1008.13
2019-03-29T09:38:22.897Z,1008.13
2019-03-29T09:39:22.904Z,1008.12
2019-03-29T09:40:22.910Z,1008.13
2019-03-29T09:41:22.914Z,1008.11
2019-03-29T09:42:29.541Z,1008.21
2019-03-29T09:43:26.287Z,1008.13
2019-03-29T09:44:22.932Z,1008.18
2019-03-29T09:45:22.936Z,1008.13
2019-03-29T09:46:22.942Z,1008.22
2019-03-29T09:47:22.952Z,1008.19
2019-03-29T09:48:22.959Z,1008.20
2019-03-29T09:49:22.961Z,1008.17
2019-03-29T09:50:23.454Z,1008.16
2019-03-29T09:51:23.030Z,1008.14
2019-03-29T09:52:22.980Z,1008.19
2019-03-29T09:53:22.985Z,1008.18
2019-03-29T09:54:22.997Z,1008.20
2019-03-29T09:55:22.997Z,1008.14
2019-03-29T09:57:36.819Z,1008.25
2019-03-29T09:58:23.015Z,1008.24
2019-03-29T09:59:23.382Z,1008.20
2019-03-29T10:00:23.679Z,1008.19
2019-03-29T10:01:23.111Z,1008.19
2019-03-29T10:02:23.040Z,1008.21
2019-03-29T10:03:23.044Z,1008.20
2019-03-29T10:04:23.051Z,1008.19
2019-03-29T10:05:23.057Z,1008.22
2019-03-29T10:06:23.070Z,1008.18
2019-03-29T10:07:23.070Z,1008.20
2019-03-29T10:08:23.073Z,1008.22
2019-03-29T10:09:23.079Z,1008.10
2019-03-29T10:10:23.090Z,1008.18
2019-03-29T10:11:23.097Z,1008.21
2019-03-29T10:12:23.096Z,1008.18
2019-03-29T10:13:23.104Z,1008.14
2019-03-29T10:14:23.111Z,1008.14
2019-03-29T10:15:23.115Z,1008.07
2019-03-29T10:16:25.788Z,1008.09
2019-03-29T10:17:23.128Z,1008.04
2019-03-29T10:18:23.137Z,1008.04
2019-03-29T10:19:23.138Z,1008.07
2019-03-29T10:20:23.199Z,1008.09
2019-03-29T10:21:23.150Z,1008.13
2019-03-29T10:22:23.156Z,1008.16
2019-03-29T10:23:23.163Z,1008.14
2019-03-29T10:24:23.168Z,1008.16
2019-03-29T10:25:23.176Z,1008.11
2019-03-29T10:26:23.180Z,1008.07
2019-03-29T10:27:23.186Z,1008.11
2019-03-29T10:28:23.192Z,1008.11
2019-03-29T10:29:23.197Z,1008.07
2019-03-29T10:30:23.209Z,1008.07
2019-03-29T10:31:32.156Z,1008.06
2019-03-29T10:32:23.216Z,1008.05
2019-03-29T10:33:23.222Z,1008.01
2019-03-29T10:34:23.228Z,1008.01
2019-03-29T10:35:23.235Z,1008.04
2019-03-29T10:36:23.240Z,1008.03
2019-03-29T10:37:23.245Z,1008.15
2019-03-29T10:38:23.253Z,1008.14
2019-03-29T10:39:26.122Z,1008.24
2019-03-29T10:40:23.266Z,1008.21
2019-03-29T10:41:23.274Z,1008.12
2019-03-29T10:42:23.278Z,1008.24
2019-03-29T10:43:23.287Z,1008.28
2019-03-29T10:44:23.289Z,1008.29
2019-03-29T10:45:23.295Z,1008.24
2019-03-29T10:46:23.300Z,1008.20
2019-03-29T10:47:23.581Z,1008.13
2019-03-29T10:48:23.327Z,1008.17
2019-03-29T10:49:23.321Z,1008.20
2019-03-29T10:50:23.326Z,1008.26
2019-03-29T10:51:23.334Z,1008.27
2019-03-29T10:52:23.336Z,1008.22
2019-03-29T10:53:23.343Z,1008.32
2019-03-29T10:54:23.350Z,1008.29
2019-03-29T10:55:23.356Z,1008.33
2019-03-29T10:56:34.131Z,1008.27
2019-03-29T10:57:23.367Z,1008.29
2019-03-29T10:58:23.374Z,1008.26
2019-03-29T10:59:27.594Z,1008.34
2019-03-29T11:00:23.386Z,1008.30
2019-03-29T11:01:24.828Z,1008.25
2019-03-29T11:02:23.398Z,1008.25
2019-03-29T11:03:23.405Z,1008.25
2019-03-29T11:04:23.413Z,1008.30
2019-03-29T11:05:23.421Z,1008.22
2019-03-29T11:06:23.423Z,1008.23
2019-03-29T11:07:23.681Z,1008.20
2019-03-29T11:08:23.437Z,1008.06
2019-03-29T11:09:23.444Z,1008.05
2019-03-29T11:10:23.447Z,1008.07
2019-03-29T11:11:23.454Z,1008.08
2019-03-29T11:12:23.459Z,1008.00
2019-03-29T11:13:23.465Z,1007.98
2019-03-29T11:14:23.474Z,1008.04
2019-03-29T11:15:23.478Z,1008.05
2019-03-29T11:16:23.485Z,1008.00
2019-03-29T11:17:23.490Z,1007.95
2019-03-29T11:18:23.495Z,1007.89
2019-03-29T11:19:23.501Z,1007.90
2019-03-29T11:20:23.511Z,1007.91
2019-03-29T11:21:23.518Z,1007.91
2019-03-29T11:22:23.523Z,1007.89
2019-03-29T11:23:23.527Z,1007.93
2019-03-29T11:24:23.533Z,1007.92
2019-03-29T11:25:23.540Z,1007.88
2019-03-29T11:26:23.547Z,1007.87
2019-03-29T11:27:23.554Z,1007.94
2019-03-29T11:28:23.558Z,1007.87
2019-03-29T11:29:23.565Z,1007.89
2019-03-29T11:30:23.569Z,1007.86
2019-03-29T11:31:25.506Z,1007.88
2019-03-29T11:32:23.583Z,1007.89
2019-03-29T11:33:23.590Z,1007.91
2019-03-29T11:34:23.596Z,1007.86
2019-03-29T11:35:23.601Z,1007.89
2019-03-29T11:36:23.607Z,1007.89
2019-03-29T11:37:23.615Z,1007.89
2019-03-29T11:38:23.624Z,1007.82
2019-03-29T11:39:27.233Z,1007.79
2019-03-29T11:40:23.635Z,1007.79
2019-03-29T11:41:23.643Z,1007.82
2019-03-29T11:42:23.645Z,1007.81
2019-03-29T11:43:27.149Z,1007.83
2019-03-29T11:44:23.658Z,1007.83
2019-03-29T11:45:23.666Z,1007.71
2019-03-29T11:46:23.670Z,1007.67
2019-03-29T11:47:23.677Z,1007.71
2019-03-29T11:48:23.682Z,1007.67
2019-03-29T11:49:23.690Z,1007.68
2019-03-29T11:50:23.695Z,1007.66
2019-03-29T11:51:23.701Z,1007.69
2019-03-29T11:52:23.707Z,1007.67
2019-03-29T11:53:23.713Z,1007.72
2019-03-29T11:54:23.718Z,1007.73
2019-03-29T11:55:23.731Z,1007.69
2019-03-29T11:56:23.731Z,1007.61
2019-03-29T11:57:23.739Z,1007.60
2019-03-29T11:58:23.744Z,1007.56
2019-03-29T11:59:23.751Z,1007.53
2019-03-29T12:00:23.755Z,1007.46
2019-03-29T12:01:23.763Z,1007.49
2019-03-29T12:02:31.095Z,1007.52
2019-03-29T12:03:23.774Z,1007.52
2019-03-29T12:04:23.780Z,1007.50
2019-03-29T12:05:23.788Z,1007.51
2019-03-29T12:06:23.795Z,1007.46